Time;durP1;ratioP1;P1;durP2;ratioP2;P2;SDS_P1;SDS_P2;PMS_P1;PMS_P2;Temp;Humidity;BMP_temperature;BMP_pressure;BME280_temperature;BME280_humidity;BME280_pressure;Samples;Min_cycle;Max_cycle;Signal;HPM_P1;HPM_P2
2022/08/07 00:01:00;;;;;;;4.32;3.28;;;;;;;-143.66;100.00;63766.88;5065217;28;22648;-64
2022/08/07 00:03:27;;;;;;;5.35;3.55;;;;;;;-143.66;100.00;63766.88;5067529;28;20046;-65
2022/08/07 00:05:53;;;;;;;5.20;3.70;;;;;;;-143.66;100.00;63766.88;5064042;28;20491;-64
2022/08/07 00:08:21;;;;;;;5.18;4.00;;;;;;;-143.66;100.00;63766.88;5063780;28;20046;-64
2022/08/07 00:10:47;;;;;;;4.55;3.45;;;;;;;-143.66;100.00;63766.88;5064256;28;20086;-64
2022/08/07 00:13:13;;;;;;;4.57;3.70;;;;;;;-143.66;100.00;63766.88;5064918;28;20036;-65
2022/08/07 00:15:39;;;;;;;4.90;3.20;;;;;;;-143.66;100.00;63766.88;5066095;28;20043;-64
2022/08/07 00:18:05;;;;;;;4.25;3.22;;;;;;;-143.66;100.00;63766.88;5063947;28;20510;-64
2022/08/07 00:20:30;;;;;;;5.80;3.67;;;;;;;-143.66;100.00;63766.88;5065348;28;20045;-64
2022/08/07 00:22:56;;;;;;;5.80;3.63;;;;;;;-143.66;100.00;63766.88;5068072;28;20040;-65
2022/08/07 00:25:23;;;;;;;4.60;3.55;;;;;;;-143.66;100.00;63766.88;5067966;28;20028;-64
2022/08/07 00:27:50;;;;;;;4.68;3.60;;;;;;;-143.66;100.00;63766.88;5067864;28;20063;-64
2022/08/07 00:30:15;;;;;;;4.95;3.45;;;;;;;-143.66;100.00;63766.88;5063698;28;20033;-64
2022/08/07 00:32:41;;;;;;;5.07;3.67;;;;;;;-143.66;100.00;63766.88;5064881;28;20467;-65
2022/08/07 00:35:08;;;;;;;5.88;3.60;;;;;;;-143.66;100.00;63766.88;5043344;28;20044;-64
2022/08/07 00:37:34;;;;;;;4.95;3.22;;;;;;;-143.66;100.00;63766.88;5068437;28;20043;-64
2022/08/07 00:39:59;;;;;;;4.47;3.50;;;;;;;-143.66;100.00;63766.88;5062809;28;20037;-64
2022/08/07 00:42:25;;;;;;;4.45;3.20;;;;;;;-143.66;100.00;63766.88;5046859;28;21741;-64
2022/08/07 00:44:50;;;;;;;4.10;3.45;;;;;;;-143.66;100.00;63766.88;5060521;28;20032;-64
2022/08/07 00:47:16;;;;;;;4.70;3.60;;;;;;;-143.66;100.00;63766.88;5059593;28;20040;-64
2022/08/07 00:49:41;;;;;;;4.63;3.67;;;;;;;-143.66;100.00;63766.88;5061853;28;20032;-64
2022/08/07 00:52:08;;;;;;;4.55;3.28;;;;;;;-143.66;100.00;63766.88;5067090;28;20051;-64
2022/08/07 00:54:34;;;;;;;4.40;3.42;;;;;;;-143.66;100.00;63766.88;5069034;28;20036;-64
2022/08/07 00:57:00;;;;;;;4.35;3.42;;;;;;;-143.66;100.00;63766.88;5065538;28;20050;-64
2022/08/07 00:59:25;;;;;;;5.13;3.72;;;;;;;-143.66;100.00;63766.88;5069953;28;20032;-64
2022/08/07 01:01:52;;;;;;;5.45;3.92;;;;;;;-143.66;100.00;63766.88;5064716;28;20029;-64
2022/08/07 01:04:19;;;;;;;7.32;3.42;;;;;;;-143.66;100.00;63766.88;5066209;28;21295;-64
2022/08/07 01:06:44;;;;;;;5.72;3.47;;;;;;;-143.66;100.00;63766.88;5042554;28;20044;-64
2022/08/07 01:09:11;;;;;;;4.72;3.08;;;;;;;-143.66;100.00;63766.88;5069806;28;20143;-65
2022/08/07 01:11:39;;;;;;;4.32;3.42;;;;;;;-143.66;100.00;63766.88;5061034;28;20055;-64
2022/08/07 01:14:04;;;;;;;4.35;3.42;;;;;;;-143.66;100.00;63766.88;5051864;28;21466;-64
2022/08/07 01:16:30;;;;;;;3.80;3.40;;;;;;;-143.66;100.00;63766.88;5049447;28;20118;-64
2022/08/07 01:18:57;;;;;;;4.43;3.40;;;;;;;-143.66;100.00;63766.88;5044981;28;20037;-64
2022/08/07 01:21:24;;;;;;;3.53;3.20;;;;;;;-143.66;100.00;63766.88;5063228;28;20060;-64
2022/08/07 01:23:53;;;;;;;5.85;3.95;;;;;;;-143.66;100.00;63766.88;5042158;28;20096;-64
2022/08/07 01:26:21;;;;;;;4.55;3.50;;;;;;;-143.66;100.00;63766.88;5071881;28;20035;-64
2022/08/07 01:28:49;;;;;;;4.85;3.47;;;;;;;-143.66;100.00;63766.88;5045879;28;20044;-65
2022/08/07 01:31:26;;;;;;;3.67;3.20;;;;;;;-143.66;100.00;63766.88;5039229;28;20378;-64
2022/08/07 01:33:53;;;;;;;5.50;3.63;;;;;;;-143.66;100.00;63766.88;5068936;28;20044;-64
2022/08/07 01:36:19;;;;;;;5.05;3.30;;;;;;;-143.66;100.00;63766.88;5063919;28;20040;-64
2022/08/07 01:38:46;;;;;;;4.07;3.30;;;;;;;-143.66;100.00;63766.88;5037094;28;20047;-64
2022/08/07 01:41:20;;;;;;;4.88;3.10;;;;;;;-143.66;100.00;63766.88;5044951;28;20039;-64
2022/08/07 01:43:48;;;;;;;5.13;3.50;;;;;;;-143.66;100.00;63766.88;5044859;28;20035;-65
2022/08/07 01:46:15;;;;;;;5.00;3.47;;;;;;;-143.66;100.00;63766.88;5041151;28;20486;-64
2022/08/07 01:48:43;;;;;;;4.80;3.38;;;;;;;-143.66;100.00;63766.88;5060478;28;20155;-64
2022/08/07 01:51:16;;;;;;;4.90;3.55;;;;;;;-143.66;100.00;63766.88;5047304;28;20089;-64
2022/08/07 01:53:46;;;;;;;5.15;3.42;;;;;;;-143.66;100.00;63766.88;5047566;28;20044;-64
2022/08/07 01:56:23;;;;;;;4.43;3.22;;;;;;;-143.66;100.00;63766.88;5043843;28;20040;-64
2022/08/07 01:58:52;;;;;;;5.22;3.22;;;;;;;-143.66;100.00;63766.88;5051489;28;20525;-64
2022/08/07 02:01:32;;;;;;;5.43;3.70;;;;;;;-143.66;100.00;63766.88;5039788;28;20032;-64
2022/08/07 02:04:04;;;;;;;;;;;;;;;-143.66;100.00;63766.88;5061234;28;20070;-65
2022/08/07 02:06:33;;;;;;;4.32;3.40;;;;;;;-143.66;100.00;63766.88;5047848;28;19923;-64
2022/08/07 02:09:06;;;;;;;4.53;3.25;;;;;;;-143.66;100.00;63766.88;5040326;28;20130;-65
2022/08/07 02:11:37;;;;;;;4.80;3.30;;;;;;;-143.66;100.00;63766.88;5046923;28;20447;-64
2022/08/07 02:14:06;;;;;;;4.68;3.45;;;;;;;-143.66;100.00;63766.88;5047643;28;20035;-64
2022/08/07 02:16:36;;;;;;;7.18;3.55;;;;;;;-143.66;100.00;63766.88;5046904;28;20044;-64
2022/08/07 02:19:06;;;;;;;5.38;3.83;;;;;;;-143.66;100.00;63766.88;5053053;28;20487;-64
2022/08/07 02:21:36;;;;;;;4.25;3.42;;;;;;;-143.66;100.00;63766.88;5054081;28;20032;-65
2022/08/07 02:24:04;;;;;;;4.22;3.25;;;;;;;-143.66;100.00;63766.88;5046641;28;20032;-64
2022/08/07 02:26:32;;;;;;;5.90;3.28;;;;;;;-143.66;100.00;63766.88;5056885;28;20028;-65
2022/08/07 02:28:59;;;;;;;4.95;3.47;;;;;;;-143.66;100.00;63766.88;5066418;28;20556;-64
2022/08/07 02:31:26;;;;;;;6.60;3.85;;;;;;;-143.66;100.00;63766.88;5040327;28;20132;-64
2022/08/07 02:33:53;;;;;;;4.88;3.58;;;;;;;-143.66;100.00;63766.88;5068646;28;20040;-64
2022/08/07 02:36:20;;;;;;;6.35;3.55;;;;;;;-143.66;100.00;63766.88;5049095;28;20056;-64
2022/08/07 02:38:47;;;;;;;5.35;3.50;;;;;;;-143.66;100.00;63766.88;5064002;28;20035;-64
2022/08/07 02:41:13;;;;;;;3.92;3.13;;;;;;;-143.66;100.00;63766.88;5050699;28;20051;-64
2022/08/07 02:43:41;;;;;;;4.55;3.50;;;;;;;-143.66;100.00;63766.88;5053494;28;20032;-64
2022/08/07 02:46:10;;;;;;;4.30;3.50;;;;;;;-143.66;100.00;63766.88;5063007;28;20123;-64
2022/08/07 02:48:37;;;;;;;4.03;3.40;;;;;;;-143.66;100.00;63766.88;5050075;28;20036;-64
2022/08/07 02:51:10;;;;;;;4.03;3.25;;;;;;;-143.66;100.00;63766.88;5061909;28;20060;-64
2022/08/07 02:53:39;;;;;;;4.57;3.53;;;;;;;-143.66;100.00;63766.88;5077717;28;20036;-64
2022/08/07 02:56:17;;;;;;;5.57;3.40;;;;;;;-143.66;100.00;63766.88;5047277;28;20071;-64
2022/08/07 02:58:43;;;;;;;4.78;3.45;;;;;;;-143.66;100.00;63766.88;5067089;28;20037;-64
2022/08/07 03:01:10;;;;;;;3.90;3.50;;;;;;;-143.66;100.00;63766.88;5059597;28;20113;-64
2022/08/07 03:03:37;;;;;;;4.70;3.50;;;;;;;-143.66;100.00;63766.88;5069220;28;20043;-64
2022/08/07 03:06:03;;;;;;;4.30;3.72;;;;;;;-143.66;100.00;63766.88;5061074;28;20052;-64
2022/08/07 03:08:30;;;;;;;4.57;3.40;;;;;;;-143.66;100.00;63766.88;5048540;28;20032;-64
2022/08/07 03:10:59;;;;;;;5.43;3.67;;;;;;;-143.66;100.00;63766.88;5069738;28;20028;-65
2022/08/07 03:13:31;;;;;;;4.80;3.42;;;;;;;-143.66;100.00;63766.88;5044027;28;20580;-65
2022/08/07 03:15:57;;;;;;;5.38;4.00;;;;;;;-143.66;100.00;63766.88;5062916;28;20047;-64
2022/08/07 03:18:25;;;;;;;4.05;3.40;;;;;;;-143.66;100.00;63766.88;5049257;28;20033;-64
2022/08/07 03:20:51;;;;;;;4.47;3.47;;;;;;;-143.66;100.00;63766.88;5047360;28;20052;-64
2022/08/07 03:23:20;;;;;;;4.45;3.67;;;;;;;-143.66;100.00;63766.88;5052151;28;20093;-64
2022/08/07 03:25:47;;;;;;;4.68;3.42;;;;;;;-143.66;100.00;63766.88;5046819;28;20028;-64
2022/08/07 03:28:16;;;;;;;5.40;3.45;;;;;;;-143.66;100.00;63766.88;5069501;28;20036;-64
2022/08/07 03:30:44;;;;;;;4.78;3.60;;;;;;;-143.66;100.00;63766.88;5039436;28;20032;-64
2022/08/07 03:33:11;;;;;;;5.40;3.45;;;;;;;-143.66;100.00;63766.88;5039999;28;20067;-64
2022/08/07 03:35:38;;;;;;;5.70;4.03;;;;;;;-143.66;100.00;63766.88;5044199;28;20032;-64
2022/08/07 03:38:07;;;;;;;4.90;3.80;;;;;;;-143.66;100.00;63766.88;5047334;28;20044;-64
2022/08/07 03:40:33;;;;;;;4.57;3.60;;;;;;;-143.66;100.00;63766.88;5046633;28;20039;-64
2022/08/07 03:42:59;;;;;;;5.45;3.50;;;;;;;-143.66;100.00;63766.88;5068264;28;20070;-64
2022/08/07 03:45:27;;;;;;;4.85;3.40;;;;;;;-143.66;100.00;63766.88;5040751;28;20040;-64
2022/08/07 03:47:56;;;;;;;5.43;3.50;;;;;;;-143.66;100.00;63766.88;5045008;28;20040;-64
2022/08/07 03:50:23;;;;;;;4.45;3.40;;;;;;;-143.66;100.00;63766.88;5039104;28;20052;-64
2022/08/07 03:52:52;;;;;;;4.47;3.80;;;;;;;-143.66;100.00;63766.88;5045403;28;20047;-64
2022/08/07 03:55:18;;;;;;;6.18;4.03;;;;;;;-143.66;100.00;63766.88;5040482;28;20036;-64
2022/08/07 03:57:47;;;;;;;4.72;3.58;;;;;;;-143.66;100.00;63766.88;5042422;28;20128;-64
2022/08/07 04:00:13;;;;;;;5.03;4.00;;;;;;;-143.66;100.00;63766.88;5047722;28;20035;-63
2022/08/07 04:02:43;;;;;;;4.57;3.70;;;;;;;-143.66;100.00;63766.88;5067171;28;20059;-64
2022/08/07 04:05:12;;;;;;;4.25;3.20;;;;;;;-143.66;100.00;63766.88;5043836;28;20147;-64
2022/08/07 04:07:44;;;;;;;5.15;3.78;;;;;;;-143.66;100.00;63766.88;5073955;28;20066;-64
2022/08/07 04:10:11;;;;;;;4.45;3.50;;;;;;;-143.66;100.00;63766.88;5045752;28;20048;-64
2022/08/07 04:12:38;;;;;;;4.30;3.30;;;;;;;-143.66;100.00;63766.88;5042037;28;20044;-64
2022/08/07 04:15:04;;;;;;;4.72;3.15;;;;;;;-143.66;100.00;63766.88;5052247;28;20187;-64
2022/08/07 04:17:32;;;;;;;5.80;3.78;;;;;;;-143.66;100.00;63766.88;5070431;28;20036;-66
2022/08/07 04:19:58;;;;;;;5.70;3.88;;;;;;;-143.66;100.00;63766.88;5060660;28;20091;-64
2022/08/07 04:22:26;;;;;;;5.70;3.80;;;;;;;-143.66;100.00;63766.88;5045980;28;20052;-64
2022/08/07 04:24:53;;;;;;;4.80;3.95;;;;;;;-143.66;100.00;63766.88;5039316;28;20051;-64
2022/08/07 04:27:19;;;;;;;5.32;3.65;;;;;;;-143.66;100.00;63766.88;5069913;28;20075;-63
2022/08/07 04:29:45;;;;;;;4.55;3.55;;;;;;;-143.66;100.00;63766.88;5062338;28;20041;-63
2022/08/07 04:32:11;;;;;;;4.55;3.38;;;;;;;-143.66;100.00;63766.88;5045255;28;20089;-63
2022/08/07 04:34:38;;;;;;;5.00;4.03;;;;;;;-143.66;100.00;63766.88;5043099;28;20615;-63
2022/08/07 04:37:04;;;;;;;4.75;3.53;;;;;;;-143.66;100.00;63766.88;5060192;28;20041;-63
2022/08/07 04:39:30;;;;;;;5.43;3.55;;;;;;;-143.66;100.00;63766.88;5066929;28;20078;-63
2022/08/07 04:41:56;;;;;;;4.53;3.60;;;;;;;-143.66;100.00;63766.88;5042342;28;20055;-63
2022/08/07 04:44:23;;;;;;;4.93;3.80;;;;;;;-143.66;100.00;63766.88;5072669;28;20040;-63
2022/08/07 04:46:48;;;;;;;4.65;3.65;;;;;;;-143.66;100.00;63766.88;5045767;28;20408;-63
2022/08/07 04:49:21;;;;;;;4.78;3.20;;;;;;;-143.66;100.00;63766.88;5045330;28;20028;-63
2022/08/07 04:51:59;;;;;;;4.70;3.78;;;;;;;-143.66;100.00;63766.88;5063137;28;20696;-63
2022/08/07 04:54:38;;;;;;;4.43;3.58;;;;;;;-143.66;100.00;63766.88;5050961;28;20056;-63
2022/08/07 04:57:17;;;;;;;5.20;3.88;;;;;;;-143.66;100.00;63766.88;5044210;28;20098;-63
2022/08/07 04:59:56;;;;;;;4.60;3.55;;;;;;;-143.66;100.00;63766.88;5069250;28;20036;-63
2022/08/07 05:02:34;;;;;;;5.57;3.42;;;;;;;-143.66;100.00;63766.88;5061267;28;20044;-63
2022/08/07 05:05:17;;;;;;;4.00;3.58;;;;;;;-143.66;100.00;63766.88;5046029;28;20048;-63
2022/08/07 05:07:51;;;;;;;5.13;3.33;;;;;;;-143.66;100.00;63766.88;5063473;28;20028;-63
2022/08/07 05:10:28;;;;;;;5.47;3.72;;;;;;;-143.66;100.00;63766.88;5049259;28;20425;-63
2022/08/07 05:13:05;;;;;;;4.43;3.75;;;;;;;-143.66;100.00;63766.88;5069839;28;20024;-63
2022/08/07 05:15:36;;;;;;;4.93;3.30;;;;;;;-143.66;100.00;63766.88;5043059;28;20040;-63
2022/08/07 05:18:08;;;;;;;5.32;3.72;;;;;;;-143.66;100.00;63766.88;5047861;28;20504;-63
2022/08/07 05:20:39;;;;;;;5.35;3.55;;;;;;;-143.66;100.00;63766.88;5047563;28;20123;-63
2022/08/07 05:23:10;;;;;;;4.45;3.58;;;;;;;-143.66;100.00;63766.88;5052103;28;20028;-63
2022/08/07 05:25:39;;;;;;;5.20;3.60;;;;;;;-143.66;100.00;63766.88;5049539;28;20036;-63
2022/08/07 05:28:07;;;;;;;5.68;3.78;;;;;;;-143.66;100.00;63766.88;5048738;28;20036;-63
2022/08/07 05:30:35;;;;;;;4.13;3.10;;;;;;;-143.66;100.00;63766.88;5060395;28;20486;-63
2022/08/07 05:33:03;;;;;;;5.13;3.53;;;;;;;-143.66;100.00;63766.88;5050480;28;20040;-63
2022/08/07 05:35:34;;;;;;;4.95;3.38;;;;;;;-143.66;100.00;63766.88;5044827;28;20052;-63
2022/08/07 05:38:05;;;;;;;4.80;3.58;;;;;;;-143.66;100.00;63766.88;5048117;28;20028;-63
2022/08/07 05:40:31;;;;;;;;;;;;;;;-143.66;100.00;63766.88;5051781;28;20060;-63
2022/08/07 05:42:57;;;;;;;4.72;3.58;;;;;;;-143.66;100.00;63766.88;5047029;28;19920;-63
2022/08/07 05:45:26;;;;;;;4.45;3.28;;;;;;;-143.66;100.00;63766.88;5053305;28;20067;-63
2022/08/07 05:47:56;;;;;;;4.53;3.65;;;;;;;-143.66;100.00;63766.88;5052936;28;20035;-63
2022/08/07 05:50:22;;;;;;;5.22;4.10;;;;;;;-143.66;100.00;63766.88;5072989;28;20639;-63
2022/08/07 05:52:48;;;;;;;4.50;3.42;;;;;;;-143.66;100.00;63766.88;5053244;28;20039;-63
2022/08/07 05:55:14;;;;;;;4.88;3.78;;;;;;;-143.66;100.00;63766.88;5072405;28;20047;-63
2022/08/07 05:57:45;;;;;;;6.25;3.92;;;;;;;-143.66;100.00;63766.88;5043045;28;20040;-63
2022/08/07 06:00:13;;;;;;;7.43;3.53;;;;;;;-143.66;100.00;63766.88;5046104;28;20067;-63
2022/08/07 06:02:39;;;;;;;4.30;3.50;;;;;;;-143.66;100.00;63766.88;5067202;28;20453;-63
2022/08/07 06:05:11;;;;;;;5.07;3.65;;;;;;;-143.66;100.00;63766.88;5045202;28;20415;-63
2022/08/07 06:07:41;;;;;;;4.68;3.67;;;;;;;-143.66;100.00;63766.88;5047107;28;20059;-63
2022/08/07 06:10:09;;;;;;;4.60;3.55;;;;;;;-143.66;100.00;63766.88;5034341;28;20032;-63
2022/08/07 06:12:35;;;;;;;4.28;3.40;;;;;;;-143.66;100.00;63766.88;5046581;28;20107;-63
2022/08/07 06:15:02;;;;;;;5.28;4.03;;;;;;;-143.66;100.00;63766.88;5044743;28;20045;-63
2022/08/07 06:17:31;;;;;;;4.85;3.60;;;;;;;-143.66;100.00;63766.88;5049056;28;20041;-63
2022/08/07 06:19:58;;;;;;;4.32;3.58;;;;;;;-143.66;100.00;63766.88;5045266;28;20039;-63
2022/08/07 06:22:25;;;;;;;5.18;4.00;;;;;;;-143.66;100.00;63766.88;5052027;28;20051;-63
2022/08/07 06:24:58;;;;;;;4.72;3.70;;;;;;;-143.66;100.00;63766.88;5047164;28;20036;-63
2022/08/07 06:27:25;;;;;;;4.88;3.92;;;;;;;-143.66;100.00;63766.88;5038913;28;20481;-63
2022/08/07 06:29:51;;;;;;;5.20;4.10;;;;;;;-143.66;100.00;63766.88;5069085;28;20025;-63
2022/08/07 06:32:18;;;;;;;4.97;3.88;;;;;;;-143.66;100.00;63766.88;5041796;28;20033;-63
2022/08/07 06:34:44;;;;;;;5.03;4.07;;;;;;;-143.66;100.00;63766.88;5058270;28;20406;-63
2022/08/07 06:37:10;;;;;;;5.03;3.72;;;;;;;-143.66;100.00;63766.88;5040976;28;20040;-63
2022/08/07 06:39:37;;;;;;;4.80;3.75;;;;;;;-143.66;100.00;63766.88;5042640;28;20123;-63
2022/08/07 06:42:16;;;;;;;6.40;3.95;;;;;;;-143.66;100.00;63766.88;5043193;28;20033;-63
2022/08/07 06:45:08;;;;;;;5.32;3.85;;;;;;;-143.66;100.00;63766.88;5057594;28;20057;-64
2022/08/07 06:47:33;;;;;;;4.45;3.70;;;;;;;-143.66;100.00;63766.88;5063967;28;20385;-64
2022/08/07 06:50:00;;;;;;;8.32;4.30;;;;;;;-143.66;100.00;63766.88;5041219;28;20033;-64
2022/08/07 06:52:35;;;;;;;4.70;3.65;;;;;;;-143.66;100.00;63766.88;5077685;28;20029;-64
2022/08/07 06:55:08;;;;;;;;;;;;;;;-143.66;100.00;63766.88;5054226;28;20116;-63
2022/08/07 06:57:36;;;;;;;5.85;4.47;;;;;;;-143.66;100.00;63766.88;5048177;28;19920;-64
2022/08/07 07:00:02;;;;;;;7.38;4.45;;;;;;;-143.66;100.00;63766.88;5058841;28;20040;-63
2022/08/07 07:02:30;;;;;;;5.15;3.83;;;;;;;-143.66;100.00;63766.88;5053509;28;20844;-63
2022/08/07 07:04:56;;;;;;;6.30;3.95;;;;;;;-143.66;100.00;63766.88;5066655;28;20056;-63
2022/08/07 07:07:22;;;;;;;5.35;4.35;;;;;;;-143.66;100.00;63766.88;5052323;28;20043;-63
2022/08/07 07:09:49;;;;;;;7.65;4.90;;;;;;;-143.66;100.00;63766.88;5058777;28;20044;-64
2022/08/07 07:12:39;;;;;;;4.55;3.70;;;;;;;-143.66;100.00;63766.88;5050349;28;20047;-63
2022/08/07 07:15:15;;;;;;;7.78;4.18;;;;;;;-143.66;100.00;63766.88;5064620;28;20037;-64
2022/08/07 07:17:48;;;;;;;6.22;4.20;;;;;;;-143.66;100.00;63766.88;5065573;28;20036;-64
2022/08/07 07:20:19;;;;;;;7.15;4.20;;;;;;;-143.66;100.00;63766.88;5066210;28;20040;-63
2022/08/07 07:22:46;;;;;;;6.03;3.95;;;;;;;-143.66;100.00;63766.88;5065114;28;20481;-64
2022/08/07 07:25:14;;;;;;;5.68;4.13;;;;;;;-143.66;100.00;63766.88;5074378;28;20041;-64
2022/08/07 07:27:48;;;;;;;5.45;3.92;;;;;;;-143.66;100.00;63766.88;5063788;28;20556;-64
2022/08/07 07:30:14;;;;;;;6.07;4.53;;;;;;;-143.66;100.00;63766.88;5061966;28;20115;-64
2022/08/07 07:32:41;;;;;;;4.40;3.50;;;;;;;-143.66;100.00;63766.88;5073578;28;20043;-64
2022/08/07 07:35:10;;;;;;;7.30;4.15;;;;;;;-143.66;100.00;63766.88;5065543;28;20044;-64
2022/08/07 07:37:40;;;;;;;4.97;3.95;;;;;;;-143.66;100.00;63766.88;5045826;28;20028;-63
2022/08/07 07:40:11;;;;;;;6.53;3.90;;;;;;;-143.66;100.00;63766.88;5061434;28;20131;-64
2022/08/07 07:42:38;;;;;;;5.13;4.10;;;;;;;-143.66;100.00;63766.88;5065091;28;20024;-64
2022/08/07 07:45:05;;;;;;;5.35;4.05;;;;;;;-143.66;100.00;63766.88;5078065;28;20058;-63
2022/08/07 07:47:35;;;;;;;5.75;4.22;;;;;;;-143.66;100.00;63766.88;5058930;28;20032;-64
2022/08/07 07:50:02;;;;;;;6.10;4.18;;;;;;;-143.66;100.00;63766.88;5065189;28;20037;-64
2022/08/07 07:52:29;;;;;;;6.03;3.97;;;;;;;-143.66;100.00;63766.88;5045460;28;20418;-64
2022/08/07 07:54:56;;;;;;;6.13;4.35;;;;;;;-143.66;100.00;63766.88;5073289;28;20077;-64
2022/08/07 07:57:23;;;;;;;6.20;3.75;;;;;;;-143.66;100.00;63766.88;5063444;28;20624;-64
2022/08/07 07:59:50;;;;;;;5.60;3.70;;;;;;;-143.66;100.00;63766.88;5056310;28;20057;-64
2022/08/07 08:02:18;;;;;;;6.50;4.10;;;;;;;-143.66;100.00;63766.88;5061686;28;20620;-64
2022/08/07 08:04:45;;;;;;;5.80;3.53;;;;;;;-143.66;100.00;63766.88;5061827;28;20047;-64
2022/08/07 08:07:12;;;;;;;4.72;3.80;;;;;;;-143.66;100.00;63766.88;5064269;28;20052;-64
2022/08/07 08:09:39;;;;;;;5.07;3.63;;;;;;;-143.66;100.00;63766.88;5068736;28;20071;-64
2022/08/07 08:12:05;;;;;;;7.20;3.50;;;;;;;-143.66;100.00;63766.88;5058033;28;20098;-64
2022/08/07 08:14:35;;;;;;;6.53;3.80;;;;;;;-143.66;100.00;63766.88;5071817;28;20105;-64
2022/08/07 08:17:01;;;;;;;5.22;3.70;;;;;;;-143.66;100.00;63766.88;5064572;28;21749;-64
2022/08/07 08:19:29;;;;;;;4.75;3.17;;;;;;;-143.66;100.00;63766.88;5065479;28;20462;-64
2022/08/07 08:27:33;;;;;;;7.13;3.55;;;;;;;-143.66;100.00;63766.88;5063444;28;20114;-65
2022/08/07 08:30:17;;;;;;;7.22;4.03;;;;;;;-143.66;100.00;63766.88;5061331;28;20588;-65
2022/08/07 08:32:57;;;;;;;7.18;3.97;;;;;;;-143.66;100.00;63766.88;5065944;28;20074;-65
2022/08/07 08:35:25;;;;;;;10.10;3.83;;;;;;;-143.66;100.00;63766.88;5063959;28;20052;-65
2022/08/07 08:37:56;;;;;;;6.93;3.90;;;;;;;-143.66;100.00;63766.88;5059401;28;20048;-65
2022/08/07 08:40:29;;;;;;;5.28;3.72;;;;;;;-143.66;100.00;63766.88;5061336;28;20452;-65
2022/08/07 08:43:13;;;;;;;6.63;3.85;;;;;;;-143.66;100.00;63766.88;5052561;28;20040;-65
2022/08/07 08:45:54;;;;;;;6.82;3.60;;;;;;;-143.66;100.00;63766.88;5064496;28;20032;-67
2022/08/07 08:48:43;;;;;;;5.25;3.53;;;;;;;-143.66;100.00;63766.88;5061392;28;20565;-66
2022/08/07 08:51:45;;;;;;;5.20;3.65;;;;;;;-143.66;100.00;63766.88;5067152;28;20059;-66
2022/08/07 08:54:24;;;;;;;4.93;3.63;;;;;;;-143.66;100.00;63766.88;5053623;28;20469;-66
2022/08/07 08:56:51;;;;;;;5.25;3.65;;;;;;;-143.66;100.00;63766.88;5061165;28;20028;-65
2022/08/07 08:59:58;;;;;;;7.05;3.38;;;;;;;-143.66;100.00;63766.88;5057768;28;20048;-64
2022/08/07 09:02:48;;;;;;;5.20;3.22;;;;;;;-143.66;100.00;63766.88;5065284;28;20028;-66
2022/08/07 09:05:33;;;;;;;4.80;3.30;;;;;;;-143.66;100.00;63766.88;5055892;28;20125;-66
2022/08/07 09:08:12;;;;;;;5.60;3.38;;;;;;;-143.66;100.00;63766.88;5065332;28;20040;-65
2022/08/07 09:11:02;;;;;;;5.20;3.50;;;;;;;-143.66;100.00;63766.88;5062889;28;20044;-64
2022/08/07 09:13:43;;;;;;;4.22;3.35;;;;;;;-143.66;100.00;63766.88;5071052;28;20032;-64
2022/08/07 09:16:26;;;;;;;5.15;3.38;;;;;;;-143.66;100.00;63766.88;5044910;28;20459;-64
2022/08/07 09:19:16;;;;;;;4.55;2.92;;;;;;;-143.66;100.00;63766.88;5064734;28;20044;-64
2022/08/07 09:21:57;;;;;;;6.68;3.33;;;;;;;-143.66;100.00;63766.88;5060969;28;20113;-64
2022/08/07 09:24:41;;;;;;;5.75;3.20;;;;;;;-143.66;100.00;63766.88;5060416;28;20051;-64
2022/08/07 09:27:23;;;;;;;4.38;3.05;;;;;;;-143.66;100.00;63766.88;5058877;28;20516;-64
2022/08/07 09:29:48;;;;;;;3.60;2.95;;;;;;;-143.66;100.00;63766.88;5053282;28;20068;-64
2022/08/07 09:32:30;;;;;;;5.72;3.20;;;;;;;-143.66;100.00;63766.88;5063357;28;20139;-63
2022/08/07 09:35:13;;;;;;;4.20;3.10;;;;;;;-143.66;100.00;63766.88;5060496;28;20024;-64
2022/08/07 09:37:57;;;;;;;4.50;3.30;;;;;;;-143.66;100.00;63766.88;5058026;28;20046;-67
2022/08/07 09:40:39;;;;;;;6.40;3.17;;;;;;;-143.66;100.00;63766.88;5066930;28;20043;-67
2022/08/07 09:43:19;;;;;;;5.22;3.55;;;;;;;-143.66;100.00;63766.88;5048525;28;20037;-68
2022/08/07 09:45:58;;;;;;;4.88;3.30;;;;;;;-143.66;100.00;63766.88;5056313;28;20395;-68
2022/08/07 09:48:55;;;;;;;4.13;3.15;;;;;;;-143.66;100.00;63766.88;5058139;28;20051;-67
2022/08/07 09:51:35;;;;;;;4.65;2.90;;;;;;;-143.66;100.00;63766.88;5045205;28;20049;-67
2022/08/07 09:54:02;;;;;;;4.30;3.10;;;;;;;-143.66;100.00;63766.88;5062506;28;20532;-66
2022/08/07 09:56:46;;;;;;;4.80;3.10;;;;;;;-143.66;100.00;63766.88;5033668;28;20317;-67
2022/08/07 09:59:48;;;;;;;3.75;2.72;;;;;;;-143.66;100.00;63766.88;5067875;28;20051;-67
2022/08/07 10:02:24;;;;;;;4.13;3.10;;;;;;;-143.66;100.00;63766.88;5061694;28;20048;-70
2022/08/07 10:05:08;;;;;;;4.85;2.80;;;;;;;-143.66;100.00;63766.88;5057518;28;20431;-66
2022/08/07 10:07:55;;;;;;;3.55;2.75;;;;;;;-143.66;100.00;63766.88;5063575;28;20085;-66
2022/08/07 10:11:05;;;;;;;4.45;2.65;;;;;;;-143.66;100.00;63766.88;5041361;28;20032;-64
2022/08/07 10:13:45;;;;;;;4.32;3.08;;;;;;;-143.66;100.00;63766.88;4987915;28;20044;-65
2022/08/07 10:16:31;;;;;;;3.67;2.80;;;;;;;-143.66;100.00;63766.88;5062084;28;20036;-64
2022/08/07 10:19:34;;;;;;;3.88;2.47;;;;;;;-143.66;100.00;63766.88;5065566;28;20040;-66
2022/08/07 10:22:31;;;;;;;4.60;3.30;;;;;;;-143.66;100.00;63766.88;5050184;28;20044;-66
2022/08/07 10:25:15;;;;;;;6.60;3.17;;;;;;;-143.66;100.00;63766.88;5068548;28;20126;-66
2022/08/07 10:28:03;;;;;;;4.35;2.90;;;;;;;-143.66;100.00;63766.88;5070993;28;20063;-66
2022/08/07 10:30:35;;;;;;;4.35;3.30;;;;;;;-143.66;100.00;63766.88;5058275;28;20470;-69
2022/08/07 10:33:29;;;;;;;4.85;3.45;;;;;;;-143.66;100.00;63766.88;5071876;28;20044;-69
2022/08/07 10:36:32;;;;;;;5.60;3.30;;;;;;;-143.66;100.00;63766.88;5063490;28;20174;-68
2022/08/07 10:39:18;;;;;;;4.00;3.00;;;;;;;-143.66;100.00;63766.88;5067204;28;20402;-68
2022/08/07 10:42:18;;;;;;;3.83;3.05;;;;;;;-143.66;100.00;63766.88;5059443;28;20047;-67
2022/08/07 10:45:00;;;;;;;4.85;2.80;;;;;;;-143.66;100.00;63766.88;5054399;28;20044;-67
2022/08/07 10:47:39;;;;;;;5.65;2.88;;;;;;;-143.66;100.00;63766.88;5047696;28;20043;-68
2022/08/07 10:50:16;;;;;;;3.92;2.67;;;;;;;-143.66;100.00;63766.88;5063503;28;20109;-68
2022/08/07 10:52:59;;;;;;;4.00;2.65;;;;;;;-143.66;100.00;63766.88;5058672;28;20383;-67
2022/08/07 10:55:44;;;;;;;3.60;2.60;;;;;;;-143.66;100.00;63766.88;5063853;28;20032;-67
2022/08/07 10:58:46;;;;;;;4.57;2.90;;;;;;;-143.66;100.00;63766.88;5062916;28;20059;-67
2022/08/07 11:01:28;;;;;;;4.82;2.65;;;;;;;-143.66;100.00;63766.88;5051492;28;20048;-68
2022/08/07 11:04:11;;;;;;;2.75;2.45;;;;;;;-143.66;100.00;63766.88;5050016;28;22277;-68
2022/08/07 11:07:05;;;;;;;5.45;2.95;;;;;;;-143.66;100.00;63766.88;5059946;28;20027;-68
2022/08/07 11:09:39;;;;;;;3.20;2.67;;;;;;;-143.66;100.00;63766.88;5059412;28;20044;-68
2022/08/07 11:12:33;;;;;;;4.15;2.67;;;;;;;-143.66;100.00;63766.88;5062468;28;20067;-69
2022/08/07 11:15:11;;;;;;;4.22;2.63;;;;;;;-143.66;100.00;63766.88;5064249;28;21683;-68
2022/08/07 11:17:55;;;;;;;5.15;2.90;;;;;;;-143.66;100.00;63766.88;5055410;28;20107;-68
2022/08/07 11:20:25;;;;;;;3.30;2.60;;;;;;;-143.66;100.00;63766.88;5062669;28;20040;-68
2022/08/07 11:23:19;;;;;;;3.72;2.70;;;;;;;-143.66;100.00;63766.88;5062856;28;20049;-67
2022/08/07 11:25:53;;;;;;;3.33;2.70;;;;;;;-143.66;100.00;63766.88;5053644;28;20078;-67
2022/08/07 11:28:32;;;;;;;4.95;2.53;;;;;;;-143.66;100.00;63766.88;5062723;28;20044;-67
2022/08/07 11:31:03;;;;;;;3.22;2.53;;;;;;;-143.66;100.00;63766.88;5059857;28;20679;-68
2022/08/07 11:33:50;;;;;;;5.35;2.60;;;;;;;-143.66;100.00;63766.88;5041110;28;20485;-67
2022/08/07 11:36:41;;;;;;;4.50;2.60;;;;;;;-143.66;100.00;63766.88;5046214;28;20051;-67
2022/08/07 11:39:29;;;;;;;3.05;2.50;;;;;;;-143.66;100.00;63766.88;5048880;28;20069;-68